Flight Track Log - Related Links

Times and Time Zones

All times are in EDT time to prevent confusion due to time zone crossing. See the N2CF flight status page for this flight to view local times or setup timezone preferences in your user account.

Time Position Orientation Groundspeed Altitude Reporting Facility
EDT Latitude Longitude Course Direction KTS MPH feet Rate Location/Type
Fri 12:14:55 PM 42.4333 -87.8333 66° East 115 132 1,900  Level Chicago TRACON
Fri 12:15:55 PM 42.4500 -87.7833 66° East 134 154 2,700 809 Climbing Chicago TRACON
Fri 12:17:16 PM 42.4958 -87.7828 North 159 183 3,800 923 Climbing Chicago Center
Fri 12:18:18 PM 42.5456 -87.7939 351° North 156 180 4,900 968 Climbing Chicago Center
Fri 12:19:20 PM 42.5908 -87.7975 357° North 162 186 5,800 1,024 Climbing Chicago Center
Fri 12:20:21 PM 42.6333 -87.8064 351° North 156 180 7,000 1,024 Climbing Chicago Center
Fri 12:21:23 PM 42.6736 -87.8142 352° North 148 170 7,900 919 Climbing Chicago Center
Fri 12:22:25 PM 42.7119 -87.8031 12° North 147 169 8,900 927 Climbing Chicago Center
Fri 12:23:26 PM 42.7383 -87.7683 44° Northeast 133 153 9,800 829 Climbing Chicago Center
Fri 12:24:28 PM 42.7669 -87.7306 44° Northeast 140 161 10,600 871 Climbing Chicago Center
Fri 12:25:30 PM 42.8003 -87.6836 46° Northeast 148 170 11,600 919 Climbing Chicago Center
Fri 12:26:32 PM 42.8319 -87.6428 43° Northeast 154 177 12,500 878 Climbing Chicago Center
Fri 12:27:33 PM 42.8622 -87.6039 43° Northeast 153 176 13,400 878 Climbing Chicago Center
Fri 12:28:35 PM 42.8928 -87.5642 44° Northeast 151 174 14,300 774 Climbing Chicago Center
Fri 12:29:37 PM 42.9239 -87.5236 44° Northeast 154 177 15,000 339 Climbing Chicago Center
Fri 12:30:39 PM 42.9553 -87.4731 50° Northeast 169 194 15,000 49 Level Chicago Center
Fri 12:31:40 PM 42.9975 -87.4069 49° Northeast 191 220 15,100 49 Climbing Chicago Center
Fri 12:32:42 PM 43.0339 -87.3625 42° Northeast 205 236 15,100  Level Chicago Center
Fri 12:33:44 PM 43.0842 -87.2964 44° Northeast 209 241 15,100  Level Chicago Center
Fri 12:34:46 PM 43.1275 -87.2433 42° Northeast 209 241 15,100  Level Chicago Center
Fri 12:35:47 PM 43.1717 -87.1883 42° Northeast 212 244 15,100  Level Chicago Center
Fri 12:36:49 PM 43.2139 -87.1344 43° Northeast 210 242 15,100  Level Chicago Center
Fri 12:37:51 PM 43.2567 -87.0794 43° Northeast 210 242 15,100  Level Chicago Center
Fri 12:38:53 PM 43.2986 -87.0231 44° Northeast 211 243 15,100  Level Chicago Center
Fri 12:39:55 PM 43.3411 -86.9681 43° Northeast 209 241 15,100  Level Chicago Center
Fri 12:40:57 PM 43.3931 -86.9022 43° Northeast 210 242 15,100  Level Chicago Center
Fri 12:41:59 PM 43.4358 -86.8472 43° Northeast 212 244 15,100  Level Chicago Center
Fri 12:43:00 PM 43.4789 -86.7942 42° Northeast 208 239 15,100  Level Chicago Center
Fri 12:44:02 PM 43.5192 -86.7389 45° Northeast 204 235 15,100  Level Chicago Center
Fri 12:45:04 PM 43.5597 -86.6833 45° Northeast 205 236 15,100  Level Chicago Center
Fri 12:46:06 PM 43.6014 -86.6331 41° Northeast 199 229 15,100  Level Chicago Center
Fri 12:46:27 PM 43.6167 -86.6117 45° Northeast 199 229 15,100  Level Minneapolis Center
Fri 12:47:28 PM 43.6564 -86.5575 45° Northeast 201 231 15,100  Level Minneapolis Center
Fri 12:48:30 PM 43.6981 -86.5044 43° Northeast 203 234 15,100  Level Minneapolis Center
Fri 12:49:32 PM 43.7383 -86.4481 45° Northeast 205 236 15,100  Level Minneapolis Center
Fri 12:50:33 PM 43.7872 -86.3811 45° Northeast 206 237 15,100  Level Minneapolis Center
Fri 12:51:35 PM 43.8289 -86.3258 44° Northeast 208 239 15,100  Level Minneapolis Center
Fri 12:52:37 PM 43.8703 -86.2717 43° Northeast 206 237 15,100  Level Minneapolis Center
Fri 12:53:38 PM 43.9111 -86.2175 44° Northeast 204 235 15,100  Level Minneapolis Center
Fri 12:54:40 PM 43.9519 -86.1628 44° Northeast 204 235 15,100  Level Minneapolis Center
Fri 12:55:42 PM 43.9939 -86.1056 44° Northeast 209 241 15,100  Level Minneapolis Center
Fri 12:56:44 PM 44.0364 -86.0511 43° Northeast 209 241 15,100  Level Minneapolis Center
Fri 12:57:45 PM 44.0792 -85.9947 43° Northeast 212 244 15,100  Level Minneapolis Center
Fri 12:58:47 PM 44.1233 -85.9314 46° Northeast 210 242 15,100  Level Minneapolis Center
Fri 12:59:49 PM 44.1658 -85.8764 43° Northeast 210 242 15,100  Level Minneapolis Center
Fri 01:00:50 PM 44.2067 -85.8203 45° Northeast 208 239 15,100  Level Minneapolis Center
Fri 01:01:52 PM 44.2558 -85.7544 44° Northeast 206 237 15,100 -242 Level Minneapolis Center
Fri 01:02:54 PM 44.2978 -85.6964 45° Northeast 211 243 14,600 -634 Descending Minneapolis Center
Fri 01:03:55 PM 44.3433 -85.6339 44° Northeast 224 258 13,800 -829 Descending Minneapolis Center
Fri 01:04:57 PM 44.3892 -85.5719 44° Northeast 229 264 12,900 -968 Descending Minneapolis Center
Fri 01:05:59 PM 44.4358 -85.5111 43° Northeast 230 265 11,800 -976 Descending Minneapolis Center
Fri 01:07:00 PM 44.4797 -85.4489 45° Northeast 228 262 10,900 -976 Descending Minneapolis Center
Fri 01:08:02 PM 44.5336 -85.3769 44° Northeast 225 259 9,800 -919 Descending Minneapolis Center
Fri 01:09:04 PM 44.5764 -85.3169 45° Northeast 221 254 9,000 -829 Descending Minneapolis Center
Fri 01:10:05 PM 44.6197 -85.2592 43° Northeast 218 251 8,100 -780 Descending Minneapolis Center
Fri 01:11:07 PM 44.6614 -85.1975 46° Northeast 218 251 7,400 -726 Descending Minneapolis Center
Fri 01:12:09 PM 44.7022 -85.1392 45° Northeast 215 247 6,600 -726 Descending Minneapolis Center
Fri 01:13:11 PM 44.7431 -85.0817 45° Northeast 211 243 5,900 -585 Descending Minneapolis Center
Fri 01:14:12 PM 44.7917 -85.0169 43° Northeast 207 238 5,400 -634 Descending Minneapolis Center
Fri 01:15:14 PM 44.8306 -84.9664 43° Northeast 200 230 4,600 -774 Descending Minneapolis Center
Fri 01:17:00 PM 44.8789 -84.8589 55° Northeast  Level FlightAware Approximate
Fri 01:24:00 PM 45.0000 -84.7000 North  Level FlightAware Approximate
Fri 01:25:00 PM 45.0130 -84.7035 North  Level Estimated
Fri 01:26:00 PM 45.0130 -84.7035 North  Level Estimated
Fri 01:27:00 PM 45.0130 -84.7035 North  Level Estimated

Login

Don't have an account? Register now (free) for customized features, flight alerts, and more!